This is the latest recevied weather packets stored in our database for station/object SR8WXE. If no packets are shown the sender has not sent any weather packets the latest 1 day(s).
| Time | Temp. | Humidity | Pressure | Rain* | Wind** | Luminosity | Snow |
|---|---|---|---|---|---|---|---|
| 1778086935 | 21.67° C | 34% | 1006.9 hPa | 0 mm | - | - | - |
| 1778086635 | 21.67° C | 35% | 1007 hPa | 0 mm | - | - | - |
| 1778084533 | 22.78° C | 33% | 1006.8 hPa | 0 mm | - | - | - |
| 1778083332 | 22.78° C | 31% | 1006.9 hPa | 0 mm | - | - | - |
| 1778082431 | 22.78° C | 31% | 1007 hPa | 0 mm | - | - | - |
| 1778081530 | 23.33° C | 29% | 1007.1 hPa | 0 mm | - | - | - |
| 1778081230 | 23.33° C | 28% | 1007.1 hPa | 0 mm | - | - | - |
| 1778080329 | 23.33° C | 27% | 1007 hPa | 0 mm | - | - | - |
| 1778079128 | 23.33° C | 28% | 1007.1 hPa | 0 mm | - | - | - |
| 1778078227 | 23.33° C | 28% | 1007.2 hPa | 0 mm | - | - | - |
| 1778077026 | 23.33° C | 30% | 1007.1 hPa | 0 mm | - | - | - |
| 1778076125 | 23.33° C | 31% | 1007.3 hPa | 0 mm | - | - | - |
| 1778075224 | 23.89° C | 29% | 1007.3 hPa | 0 mm | - | - | - |
| 1778074924 | 23.89° C | 28% | 1007.4 hPa | 0 mm | - | - | - |
| 1778074624 | 23.89° C | 27% | 1007.4 hPa | 0 mm | - | - | - |
| 1778072822 | 23.89° C | 29% | 1007.6 hPa | 0 mm | - | - | - |
| 1778071921 | 23.89° C | 28% | 1007.6 hPa | 0 mm | - | - | - |
| 1778071020 | 23.33° C | 29% | 1007.8 hPa | 0 mm | - | - | - |
| 1778070720 | 23.33° C | 30% | 1007.9 hPa | 0 mm | - | - | - |
| 1778070120 | 23.33° C | 29% | 1008.1 hPa | 0 mm | - | - | - |
| 1778069819 | 23.33° C | 31% | 1008 hPa | 0 mm | - | - | - |
| 1778068618 | 23.33° C | 29% | 1008.3 hPa | 0 mm | - | - | - |
| 1778066516 | 23.33° C | 32% | 1008.4 hPa | 0 mm | - | - | - |
| 1778065615 | 22.78° C | 31% | 1008.7 hPa | 0 mm | - | - | - |
| 1778065315 | 22.78° C | 31% | 1008.6 hPa | 0 mm | - | - | - |
* Rain latest hour (hover to see other rain measurements)
** Current wind speed in m/s (hover to see current wind gust speed)